createdAt,value
2023-02-08T00:00:17.768Z,102884.94
2023-02-08T00:03:06.475Z,102889.75
2023-02-08T00:05:55.203Z,102882.44
2023-02-08T00:08:43.967Z,102893.84
2023-02-08T00:11:32.595Z,102893.50
2023-02-08T00:14:21.231Z,102898.72
2023-02-08T00:17:11.338Z,102893.50
2023-02-08T00:19:59.986Z,102892.47
2023-02-08T00:22:48.963Z,102888.31
2023-02-08T00:25:37.772Z,102890.00
2023-02-08T00:28:26.625Z,102883.00
2023-02-08T00:31:15.364Z,102887.84
2023-02-08T00:34:05.434Z,102886.31
2023-02-08T00:36:54.073Z,102884.22
2023-02-08T00:39:42.696Z,102882.13
2023-02-08T00:42:31.381Z,102880.31
2023-02-08T00:45:20.257Z,102889.09
2023-02-08T00:48:08.897Z,102886.16
2023-02-08T00:51:03.160Z,102885.19
2023-02-08T00:53:54.428Z,102881.16
2023-02-08T00:56:43.242Z,102878.25
2023-02-08T00:59:31.878Z,102887.63
2023-02-08T01:02:20.542Z,102871.47
2023-02-08T01:05:09.531Z,102873.53
2023-02-08T01:07:59.556Z,102859.78
2023-02-08T01:10:48.535Z,102863.28
2023-02-08T01:13:37.949Z,102861.47
2023-02-08T01:16:28.050Z,102872.00
2023-02-08T01:19:17.259Z,102862.50
2023-02-08T01:22:05.923Z,102859.50
2023-02-08T01:24:56.139Z,102852.38
2023-02-08T01:27:45.403Z,102857.97
2023-02-08T01:30:34.066Z,102855.69
2023-02-08T01:33:22.789Z,102851.50
2023-02-08T01:36:12.520Z,102860.22
2023-02-08T01:39:01.320Z,102855.69
2023-02-08T01:41:51.251Z,102851.06
2023-02-08T01:45:28.979Z,102850.09
2023-02-08T01:48:21.211Z,102855.16
2023-02-08T01:51:13.010Z,102854.50
2023-02-08T01:54:02.728Z,102852.28
2023-02-08T01:56:52.754Z,102847.22
2023-02-08T01:59:44.546Z,102845.78
2023-02-08T02:02:33.180Z,102844.09
2023-02-08T02:05:23.149Z,102843.00
2023-02-08T02:08:13.058Z,102835.13
2023-02-08T02:11:01.925Z,102836.22
2023-02-08T02:13:52.320Z,102839.38
2023-02-08T02:16:41.126Z,102835.47
2023-02-08T02:19:35.797Z,102837.72
2023-02-08T02:22:58.667Z,102835.19
2023-02-08T02:26:07.482Z,102835.78
2023-02-08T02:29:26.869Z,102836.56
2023-02-08T02:32:41.704Z,102836.28
2023-02-08T02:35:36.125Z,102829.72
2023-02-08T02:38:33.061Z,102834.03
2023-02-08T02:41:45.547Z,102830.13
2023-02-08T02:44:49.236Z,102830.38
2023-02-08T02:47:45.316Z,102838.06
2023-02-08T02:50:36.505Z,102833.28
2023-02-08T02:53:33.389Z,102833.72
2023-02-08T02:56:27.590Z,102830.06
2023-02-08T02:59:17.521Z,102828.94
2023-02-08T03:02:06.815Z,102818.66
2023-02-08T03:04:58.548Z,102831.53
2023-02-08T03:08:02.362Z,102832.50
2023-02-08T03:11:13.934Z,102836.50
2023-02-08T03:14:23.585Z,102830.47
2023-02-08T03:17:24.756Z,102836.25
2023-02-08T03:20:18.260Z,102839.91
2023-02-08T03:23:11.604Z,102835.28
2023-02-08T03:26:04.242Z,102843.44
2023-02-08T03:28:58.298Z,102845.50
2023-02-08T03:31:49.594Z,102840.88
2023-02-08T03:34:45.735Z,102843.78
2023-02-08T03:37:39.324Z,102850.19
2023-02-08T03:40:31.423Z,102860.59
2023-02-08T03:43:23.777Z,102858.19
2023-02-08T03:46:15.635Z,102856.25
2023-02-08T03:49:06.554Z,102856.59
2023-02-08T03:51:56.683Z,102858.66
2023-02-08T03:54:50.440Z,102862.88
2023-02-08T03:57:44.525Z,102876.38
2023-02-08T04:00:36.104Z,102868.38
2023-02-08T04:03:26.773Z,102871.75
2023-02-08T04:06:15.446Z,102869.53
2023-02-08T04:09:04.135Z,102870.22
2023-02-08T04:11:54.221Z,102871.03
2023-02-08T04:14:42.955Z,102871.75
2023-02-08T04:17:32.335Z,102869.69
2023-02-08T04:20:21.348Z,102868.09
2023-02-08T04:23:10.058Z,102870.38
2023-02-08T04:25:58.774Z,102865.09
2023-02-08T04:28:49.031Z,102863.50
2023-02-08T04:31:37.755Z,102863.28
2023-02-08T04:34:27.366Z,102872.13
2023-02-08T04:37:16.120Z,102874.41
2023-02-08T04:40:05.396Z,102864.06
2023-02-08T04:42:54.085Z,102859.84
2023-02-08T04:45:44.166Z,102854.22
2023-02-08T04:48:32.757Z,102852.56
2023-02-08T04:51:21.440Z,102844.94
2023-02-08T04:54:10.060Z,102845.78
2023-02-08T04:56:58.637Z,102841.88
2023-02-08T04:59:47.357Z,102846.00
2023-02-08T05:02:37.386Z,102849.44
2023-02-08T05:05:27.268Z,102844.94
2023-02-08T05:08:19.075Z,102851.41
2023-02-08T05:11:08.095Z,102842.16
2023-02-08T05:13:56.896Z,102834.59
2023-02-08T05:16:45.539Z,102841.63
2023-02-08T05:19:35.954Z,102849.44
2023-02-08T05:22:24.677Z,102854.78
2023-02-08T05:25:13.357Z,102850.84
2023-02-08T05:28:04.981Z,102847.22
2023-02-08T05:30:53.872Z,102847.81
2023-02-08T05:33:42.763Z,102853.41
2023-02-08T05:36:32.833Z,102860.28
2023-02-08T05:39:21.631Z,102854.94
2023-02-08T05:42:12.715Z,102854.22
2023-02-08T05:45:01.427Z,102850.16
2023-02-08T05:47:50.136Z,102852.28
2023-02-08T05:50:39.144Z,102857.88
2023-02-08T05:53:29.557Z,102862.72
2023-02-08T05:56:18.204Z,102852.09
2023-02-08T05:59:06.793Z,102853.59
2023-02-08T06:01:55.477Z,102851.63
2023-02-08T06:04:44.185Z,102845.22
2023-02-08T06:07:35.695Z,102856.97
2023-02-08T06:10:25.903Z,102853.31
2023-02-08T06:13:14.568Z,102862.28
2023-02-08T06:16:03.557Z,102862.28
2023-02-08T06:18:52.255Z,102860.59
2023-02-08T06:21:42.153Z,102862.28
2023-02-08T06:24:30.907Z,102862.88
2023-02-08T06:27:20.953Z,102864.84
2023-02-08T06:30:10.357Z,102869.91
2023-02-08T06:32:59.011Z,102875.84
2023-02-08T06:35:47.719Z,102876.81
2023-02-08T06:38:36.315Z,102883.50
2023-02-08T06:41:24.945Z,102884.81
2023-02-08T06:44:16.068Z,102884.09
2023-02-08T06:47:04.948Z,102888.44
2023-02-08T06:49:53.987Z,102885.31
2023-02-08T06:52:42.839Z,102891.38
2023-02-08T06:55:31.484Z,102892.59
2023-02-08T06:58:20.546Z,102891.50
2023-02-08T07:01:13.445Z,102904.72
2023-02-08T07:04:02.148Z,102894.22
2023-02-08T07:06:50.822Z,102904.94
2023-02-08T07:09:39.630Z,102897.44
2023-02-08T07:12:28.290Z,102903.09
2023-02-08T07:15:17.134Z,102895.75
2023-02-08T07:18:07.281Z,102902.56
2023-02-08T07:20:55.944Z,102899.94
2023-02-08T07:23:46.116Z,102902.00
2023-02-08T07:26:34.742Z,102897.53
2023-02-08T07:29:23.403Z,102898.19
2023-02-08T07:32:13.615Z,102899.91
2023-02-08T07:35:03.733Z,102895.53
2023-02-08T07:37:52.556Z,102895.72
2023-02-08T07:40:41.687Z,102903.22
2023-02-08T07:43:30.684Z,102901.38
2023-02-08T07:46:21.355Z,102895.72
2023-02-08T07:49:10.181Z,102897.69
2023-02-08T07:52:00.190Z,102890.09
2023-02-08T07:54:48.877Z,102897.16
2023-02-08T07:57:37.568Z,102890.25
2023-02-08T08:00:26.962Z,102894.06
2023-02-08T08:03:15.714Z,102894.09
2023-02-08T08:06:04.573Z,102902.09
2023-02-08T08:08:54.813Z,102903.28
2023-02-08T08:11:43.508Z,102909.25
2023-02-08T08:14:32.070Z,102907.44
2023-02-08T08:17:20.862Z,102905.75
2023-02-08T08:20:11.159Z,102901.84
2023-02-08T08:22:59.877Z,102907.16
2023-02-08T08:25:50.243Z,102908.63
2023-02-08T08:28:38.961Z,102900.78
2023-02-08T08:31:27.762Z,102897.41
2023-02-08T08:34:16.520Z,102902.56
2023-02-08T08:37:05.247Z,102901.66
2023-02-08T08:39:53.914Z,102910.81
2023-02-08T08:42:44.030Z,102912.59
2023-02-08T08:45:32.592Z,102911.72
2023-02-08T08:48:21.270Z,102912.44
2023-02-08T08:51:09.939Z,102907.56
2023-02-08T08:53:58.564Z,102901.69
2023-02-08T08:56:47.444Z,102908.97
2023-02-08T08:59:37.445Z,102918.25
2023-02-08T09:02:26.194Z,102918.25
2023-02-08T09:05:14.912Z,102912.03
2023-02-08T09:08:03.622Z,102915.09
2023-02-08T09:10:52.344Z,102922.13
2023-02-08T09:13:41.547Z,102911.22
2023-02-08T09:16:31.757Z,102926.25
2023-02-08T09:19:20.613Z,102923.41
2023-02-08T09:22:09.361Z,102916.56
2023-02-08T09:24:58.010Z,102918.69
2023-02-08T09:27:46.621Z,102928.38
2023-02-08T09:30:35.411Z,102914.03
2023-02-08T09:33:25.404Z,102917.97
2023-02-08T09:36:14.161Z,102924.28
2023-02-08T09:39:05.879Z,102926.69
2023-02-08T09:42:21.952Z,102923.75
2023-02-08T09:45:27.789Z,102931.75
2023-02-08T09:48:22.000Z,102935.66
2023-02-08T09:51:26.554Z,102944.38
2023-02-08T09:54:19.877Z,102937.22
2023-02-08T09:57:13.684Z,102942.41
2023-02-08T10:00:05.367Z,102936.53
2023-02-08T10:02:55.980Z,102938.81
2023-02-08T10:05:44.574Z,102929.31
2023-02-08T10:08:35.848Z,102925.03
2023-02-08T10:11:44.446Z,102927.63
2023-02-08T10:14:50.313Z,102931.25
2023-02-08T10:17:58.128Z,102931.25
2023-02-08T10:20:56.649Z,102918.34
2023-02-08T10:24:11.887Z,102918.13
2023-02-08T10:27:06.814Z,102916.00
2023-02-08T10:30:21.245Z,102914.91
2023-02-08T10:33:15.885Z,102915.88
2023-02-08T10:36:09.296Z,102916.97
2023-02-08T10:39:04.348Z,102918.53
2023-02-08T10:41:53.483Z,102912.22
2023-02-08T10:44:52.514Z,102906.88
2023-02-08T10:47:45.597Z,102894.53
2023-02-08T10:50:36.783Z,102893.13
2023-02-08T10:53:25.778Z,102878.50
2023-02-08T10:56:30.247Z,102878.78
2023-02-08T10:59:22.446Z,102863.19
2023-02-08T11:02:22.859Z,102869.25
2023-02-08T11:05:18.895Z,102862.09
2023-02-08T11:08:09.462Z,102860.25
2023-02-08T11:11:00.364Z,102844.25
2023-02-08T11:13:52.482Z,102848.16
2023-02-08T11:16:41.699Z,102856.88
2023-02-08T11:19:35.791Z,102851.53
2023-02-08T11:22:26.835Z,102848.75
2023-02-08T11:25:33.886Z,102850.44
2023-02-08T11:28:27.686Z,102856.19
2023-02-08T11:31:22.024Z,102842.72
2023-02-08T11:34:13.229Z,102855.91
2023-02-08T11:37:05.113Z,102850.41
2023-02-08T11:39:55.950Z,102857.44
2023-02-08T11:42:49.299Z,102861.41
2023-02-08T11:45:39.143Z,102846.19
2023-02-08T11:48:37.480Z,102838.06
2023-02-08T11:51:30.875Z,102852.25
2023-02-08T11:54:41.257Z,102841.84
2023-02-08T11:57:31.796Z,102838.34
2023-02-08T12:00:22.824Z,102843.69
2023-02-08T12:03:16.141Z,102848.03
2023-02-08T12:06:26.176Z,102837.94
2023-02-08T12:09:26.886Z,102844.25
2023-02-08T12:12:21.284Z,102845.97
2023-02-08T12:15:17.436Z,102845.09
2023-02-08T12:18:42.666Z,102845.97
2023-02-08T12:21:38.902Z,102837.66
2023-02-08T12:24:34.511Z,102837.66
2023-02-08T12:27:31.072Z,102827.97
2023-02-08T12:30:25.387Z,102829.66
2023-02-08T12:33:40.353Z,102821.78
2023-02-08T12:36:36.613Z,102834.59
2023-02-08T12:39:52.618Z,102829.38
2023-02-08T12:42:49.906Z,102824.84
2023-02-08T12:46:04.425Z,102821.19
2023-02-08T12:49:09.862Z,102819.25
2023-02-08T12:52:08.126Z,102831.63
2023-02-08T12:54:59.163Z,102824.59
2023-02-08T12:57:53.074Z,102825.56
2023-02-08T13:00:43.008Z,102824.59
2023-02-08T13:03:40.830Z,102828.22
2023-02-08T13:06:33.934Z,102817.84
2023-02-08T13:09:33.444Z,102818.69
2023-02-08T13:12:27.031Z,102808.03
2023-02-08T13:15:29.705Z,102797.91
2023-02-08T13:18:24.054Z,102795.66
2023-02-08T13:21:16.016Z,102793.69
2023-02-08T13:24:05.130Z,102777.09
2023-02-08T13:26:56.420Z,102774.31
2023-02-08T13:29:47.418Z,102777.97
2023-02-08T13:32:43.581Z,102776.13
2023-02-08T13:35:35.260Z,102770.94
2023-02-08T13:38:29.655Z,102766.19
2023-02-08T13:41:19.521Z,102767.97
2023-02-08T13:44:11.345Z,102773.75
2023-02-08T13:47:00.012Z,102762.22
2023-02-08T13:49:58.544Z,102768.41
2023-02-08T13:52:54.476Z,102761.53
2023-02-08T13:55:59.848Z,102778.53
2023-02-08T13:59:05.995Z,102773.22
2023-02-08T14:02:29.953Z,102769.56
2023-02-08T14:05:45.897Z,102763.22
2023-02-08T14:08:42.922Z,102772.22
2023-02-08T14:11:40.818Z,102776.56
2023-02-08T14:14:31.060Z,102776.75
2023-02-08T14:17:21.701Z,102771.69
2023-02-08T14:20:20.084Z,102752.38
2023-02-08T14:23:23.535Z,102766.69
2023-02-08T14:26:24.086Z,102753.13
2023-02-08T14:29:22.670Z,102760.31
2023-02-08T14:32:24.797Z,102748.91
2023-02-08T14:35:21.751Z,102755.94
2023-02-08T14:38:52.877Z,102748.50
2023-02-08T14:41:47.312Z,102754.53
2023-02-08T14:45:00.112Z,102750.84
2023-02-08T14:48:03.352Z,102758.59
2023-02-08T14:51:05.706Z,102740.13
2023-02-08T14:53:57.334Z,102740.88
2023-02-08T14:56:53.697Z,102743.97
2023-02-08T14:59:43.217Z,102747.09
2023-02-08T15:02:32.355Z,102746.31
2023-02-08T15:05:23.305Z,102748.91
2023-02-08T15:08:11.979Z,102747.47
2023-02-08T15:11:02.071Z,102743.63
2023-02-08T15:13:51.753Z,102737.59
2023-02-08T15:16:43.806Z,102731.88
2023-02-08T15:19:35.134Z,102737.75
2023-02-08T15:22:34.401Z,102726.97
2023-02-08T15:25:26.387Z,102730.13
2023-02-08T15:28:22.480Z,102729.72
2023-02-08T15:31:16.183Z,102717.28
2023-02-08T15:34:04.871Z,102716.66
2023-02-08T15:36:55.364Z,102713.72
2023-02-08T15:39:44.378Z,102707.88
2023-02-08T15:42:35.325Z,102705.91
2023-02-08T15:45:30.664Z,102708.28
2023-02-08T15:48:19.521Z,102710.66
2023-02-08T15:51:11.456Z,102707.31
2023-02-08T15:54:00.235Z,102699.47
2023-02-08T15:56:52.018Z,102700.56
2023-02-08T15:59:41.237Z,102702.78
2023-02-08T16:02:32.346Z,102698.16
2023-02-08T16:05:22.962Z,102691.88
2023-02-08T16:08:21.765Z,102686.78
2023-02-08T16:11:15.629Z,102687.94
2023-02-08T16:14:07.768Z,102683.75
2023-02-08T16:16:58.399Z,102689.78
2023-02-08T16:19:53.644Z,102688.09
2023-02-08T16:22:42.250Z,102690.09
2023-02-08T16:25:38.323Z,102701.75
2023-02-08T16:28:29.398Z,102692.19
2023-02-08T16:31:22.877Z,102693.31
2023-02-08T16:34:17.051Z,102692.47
2023-02-08T16:37:08.950Z,102682.91
2023-02-08T16:39:58.518Z,102683.75
2023-02-08T16:42:47.261Z,102682.91
2023-02-08T16:45:35.905Z,102673.91
2023-02-08T16:48:33.171Z,102682.38
2023-02-08T16:51:23.916Z,102672.31
2023-02-08T16:54:16.260Z,102672.22
2023-02-08T16:57:05.089Z,102667.59
2023-02-08T16:59:56.677Z,102666.34
2023-02-08T17:02:45.403Z,102656.50
2023-02-08T17:05:37.583Z,102669.84
2023-02-08T17:08:26.287Z,102671.66
2023-02-08T17:11:16.222Z,102664.09
2023-02-08T17:14:05.851Z,102673.50
2023-02-08T17:16:54.464Z,102669.44
2023-02-08T17:19:44.439Z,102680.47
2023-02-08T17:22:33.197Z,102690.13
2023-02-08T17:25:22.572Z,102682.53
2023-02-08T17:28:17.152Z,102681.41
2023-02-08T17:31:06.098Z,102673.66
2023-02-08T17:33:55.588Z,102666.47
2023-02-08T17:36:44.232Z,102665.03
2023-02-08T17:39:32.847Z,102665.03
2023-02-08T17:42:21.460Z,102667.88
2023-02-08T17:45:12.197Z,102660.94
2023-02-08T17:48:01.694Z,102661.91
2023-02-08T17:50:51.014Z,102660.00
2023-02-08T17:53:40.909Z,102650.75
2023-02-08T17:56:31.596Z,102642.50
2023-02-08T17:59:20.269Z,102644.56
2023-02-08T18:02:10.908Z,102654.38
2023-02-08T18:04:59.670Z,102653.56
2023-02-08T18:07:48.455Z,102651.31
2023-02-08T18:10:37.039Z,102645.69
2023-02-08T18:13:25.661Z,102652.69
2023-02-08T18:16:16.515Z,102642.84
2023-02-08T18:19:07.611Z,102646.19
2023-02-08T18:21:56.255Z,102645.50
2023-02-08T18:24:44.840Z,102643.34
2023-02-08T18:27:33.602Z,102636.06
2023-02-08T18:30:22.747Z,102637.75
2023-02-08T18:33:13.588Z,102645.59
2023-02-08T18:36:06.033Z,102640.25
2023-02-08T18:38:55.875Z,102641.94
2023-02-08T18:41:44.499Z,102648.25
2023-02-08T18:44:35.281Z,102650.06
2023-02-08T18:47:23.901Z,102642.25
2023-02-08T18:50:12.876Z,102638.31
2023-02-08T18:53:02.965Z,102639.31
2023-02-08T18:55:54.532Z,102633.59
2023-02-08T18:58:43.164Z,102626.03
2023-02-08T19:01:31.752Z,102625.84
2023-02-08T19:04:20.396Z,102619.72
2023-02-08T19:07:09.462Z,102604.56
2023-02-08T19:09:59.692Z,102585.78
2023-02-08T19:12:48.241Z,102589.97
2023-02-08T19:15:38.017Z,102583.94
2023-02-08T19:18:26.691Z,102587.19
2023-02-08T19:21:17.324Z,102581.41
2023-02-08T19:24:06.492Z,102573.97
2023-02-08T19:26:56.604Z,102564.94
2023-02-08T19:29:45.213Z,102554.56
2023-02-08T19:32:33.862Z,102557.50
2023-02-08T19:35:22.610Z,102550.91
2023-02-08T19:38:11.389Z,102557.09
2023-02-08T19:41:00.115Z,102547.25
2023-02-08T19:43:50.999Z,102544.16
2023-02-08T19:46:39.906Z,102542.75
2023-02-08T19:49:29.331Z,102540.50
2023-02-08T19:52:20.748Z,102539.63
2023-02-08T19:55:09.784Z,102534.31
2023-02-08T19:57:58.616Z,102526.47
2023-02-08T20:00:48.850Z,102540.19
2023-02-08T20:03:37.748Z,102532.31
2023-02-08T20:06:27.986Z,102522.09
2023-02-08T20:09:17.925Z,102527.00
2023-02-08T20:12:07.266Z,102520.56
2023-02-08T20:14:56.026Z,102514.91
2023-02-08T20:17:46.443Z,102519.44
2023-02-08T20:20:38.977Z,102510.75
2023-02-08T20:23:28.732Z,102504.13
2023-02-08T20:26:19.009Z,102502.44
2023-02-08T20:29:08.765Z,102492.34
2023-02-08T20:31:58.104Z,102491.66
2023-02-08T20:34:59.141Z,102484.34
2023-02-08T20:37:48.890Z,102486.53
2023-02-08T20:40:37.598Z,102478.66
2023-02-08T20:43:26.258Z,102484.00
2023-02-08T20:46:22.377Z,102481.06
2023-02-08T20:49:12.745Z,102481.19
2023-02-08T20:52:03.280Z,102466.03
2023-02-08T20:54:51.962Z,102469.72
2023-02-08T20:57:40.892Z,102463.25
2023-02-08T21:00:36.788Z,102455.19
2023-02-08T21:03:38.012Z,102450.97
2023-02-08T21:06:29.815Z,102455.00
2023-02-08T21:09:21.248Z,102449.84
2023-02-08T21:12:12.335Z,102454.91
2023-02-08T21:15:04.129Z,102448.88
2023-02-08T21:17:58.106Z,102441.41
2023-02-08T21:20:51.103Z,102436.94
2023-02-08T21:23:41.893Z,102426.94
2023-02-08T21:26:32.457Z,102421.19
2023-02-08T21:29:26.269Z,102418.50
2023-02-08T21:32:14.901Z,102415.16
2023-02-08T21:35:03.890Z,102402.72
2023-02-08T21:37:53.433Z,102402.34
2023-02-08T21:40:42.100Z,102397.81
2023-02-08T21:43:32.292Z,102392.06
2023-02-08T21:46:20.893Z,102398.81
2023-02-08T21:49:28.410Z,102387.88
2023-02-08T21:52:34.804Z,102382.47
2023-02-08T21:55:23.699Z,102383.09
2023-02-08T21:58:12.418Z,102377.25
2023-02-08T22:01:02.724Z,102365.53
2023-02-08T22:03:51.475Z,102360.31
2023-02-08T22:06:52.713Z,102363.91
2023-02-08T22:09:42.502Z,102354.41
2023-02-08T22:12:31.275Z,102362.53
2023-02-08T22:15:21.684Z,102354.00
2023-02-08T22:18:13.295Z,102354.44
2023-02-08T22:21:02.007Z,102356.63
2023-02-08T22:23:50.726Z,102356.09
2023-02-08T22:26:39.544Z,102358.09
2023-02-08T22:29:28.612Z,102354.09
2023-02-08T22:32:18.008Z,102346.09
2023-02-08T22:35:08.702Z,102343.81
2023-02-08T22:37:57.461Z,102340.69
2023-02-08T22:40:46.479Z,102336.63
2023-02-08T22:43:35.184Z,102347.28
2023-02-08T22:46:24.234Z,102343.34
2023-02-08T22:49:13.147Z,102348.72
2023-02-08T22:52:06.569Z,102347.91
2023-02-08T22:54:56.255Z,102335.53
2023-02-08T22:57:45.223Z,102328.25
2023-02-08T23:00:44.663Z,102329.81
2023-02-08T23:03:33.907Z,102326.84
2023-02-08T23:06:27.512Z,102313.06
2023-02-08T23:09:17.701Z,102321.38
2023-02-08T23:12:07.877Z,102307.47
2023-02-08T23:14:58.253Z,102310.81
2023-02-08T23:17:46.990Z,102308.91
2023-02-08T23:20:39.249Z,102311.97
2023-02-08T23:23:28.493Z,102308.59
2023-02-08T23:26:22.864Z,102304.97
2023-02-08T23:29:11.540Z,102299.34
2023-02-08T23:32:00.260Z,102306.34
2023-02-08T23:34:48.880Z,102309.19
2023-02-08T23:37:37.637Z,102300.50
2023-02-08T23:40:26.421Z,102298.81
2023-02-08T23:43:16.431Z,102290.81
2023-02-08T23:46:07.707Z,102292.88
2023-02-08T23:48:56.575Z,102293.19
2023-02-08T23:51:46.085Z,102290.53
2023-02-08T23:54:34.770Z,102293.75
2023-02-08T23:57:23.356Z,102296.88
